Urb San Francisco, Puerto Rico
Current Conditions -  °F | °C
As of 6:53 PM on Friday 24 Oct 2014 (Local Time) from TJNR Reporting Station
Scattered Clouds Scattered Clouds  
Wind Chill: 83°   Ceiling: Unl
Heat Index: 91°   Visibility: 10mi
Dew Point: 76°   Wind: 5mph
Humidity: 79%   Direction: 140°SE
Pressure: 29.91"   Gusts: NA
Location:  18.1494°N, 65.8294°W
Report Text: TJNR 242253Z AUTO 14004KT 10SM FEW039 SCT055 28/24 A2991 RMK AO2 SLP127 T02830244 $
Loading
Personal Weather Stations






























Interactive Weather Map
Tropical Storm Tracking
New forecast layout! Learn more

10-Day Weather Forecast

Advertisements
Track Severe Weather on mobile